Aeroporto :
LOGIN :

Iscrizione | Disclaimer

   EN    FR    IT 

 










Sommario :    VFR   VFR Marginale   IFR   IFR Intensivo   IFR Molto Intensivo
Visibilità : 
Base nubi : 
>= 8 km
>= 3000ft
5 / 8 km
1000 / 3000 ft
1500m / 5 km
500 / 1000 ft
800 / 1500m
200 / 500 ft
< 800m
< 200 ft
Simboli :   Temporali  Nebbia  Neve Forte  Precipitazioni Forti  Vento > 20 kt
SIGMETs :   Varie  Temporali  Ghiacco  Turbolenza  Onda orograficha  Ceneri Vulcaniche






- Altitudine del aeroporto : 75 ft
- Codice IATA : YEO


EGDY - RNAS Yeovilton

ULTIMO METAR :
  • 211321Z 09013KT 9999 -RA SCT014 BKN020 08/05 Q0998 NOSIG RMK GRN GRN

METARs OBSOLETI :
  • 211250Z 09011KT 9999 FEW014 BKN020 08/06 Q0998 NOSIG RMK WHT WHT
  • 211220Z 09012KT 9999 FEW014 BKN020 08/05 Q0999 NOSIG RMK WHT WHT
  • 211150Z 10012KT 9999 FEW014 SCT020 BKN090 08/06 Q0999 NOSIG RMK WHT WHT
  • 211120Z 10015KT 9999 FEW014 BKN090 BKN200 08/05 Q0999 BECMG SCT014 RMK BLU BECMG GRN

TAF TAF EGDY
Valido dal 21 a 12 ore il 21 a 21 ore UTC


211059Z 2112/2121 11012KT 9999 FEW012
TEMPO 2113/2121 8000 -RA BKN017
PROB30
TEMPO 2115/2119 5000 RA SCT008



MetMap, La meteo Aeronautica in un colpo d'occhio ! - Copyright ORBIFLY Dicembre 2007 - Disclaimer

ORBIFLY MET'MAP TEAM :

Programmazione e sviluppo : Alexandra Zaïnal
Concezione e sviluppo : Baudouin d'Aumeries
Co-Programmazione e sviluppo : Marc-Olivier Méhu
Supporto tecnico e logistico : Manuel Goepfert
Aiuto per la traduzione : Arnaldo La Scala

Contatto : metmap@orbifly.com




FONTI E CREDITI :

   NOAA